sensor_id;sensor_type;location;lat;lon;timestamp;P1;durP1;ratioP1;P2;durP2;ratioP2
17943;SDS011;9097;47.028;15.444;2022-12-07T00:00:40;5.03;;;2.50;;
17943;SDS011;9097;47.028;15.444;2022-12-07T00:03:44;12.07;;;3.80;;
17943;SDS011;9097;47.028;15.444;2022-12-07T00:06:50;8.47;;;3.30;;
17943;SDS011;9097;47.028;15.444;2022-12-07T00:09:54;9.53;;;2.70;;
17943;SDS011;9097;47.028;15.444;2022-12-07T00:12:56;6.20;;;3.77;;
17943;SDS011;9097;47.028;15.444;2022-12-07T00:16:00;8.87;;;3.60;;
17943;SDS011;9097;47.028;15.444;2022-12-07T00:19:04;14.90;;;5.23;;
17943;SDS011;9097;47.028;15.444;2022-12-07T00:22:07;7.93;;;4.83;;
17943;SDS011;9097;47.028;15.444;2022-12-07T00:25:10;12.93;;;4.03;;
17943;SDS011;9097;47.028;15.444;2022-12-07T00:28:13;7.73;;;4.00;;
17943;SDS011;9097;47.028;15.444;2022-12-07T00:31:16;7.70;;;2.93;;
17943;SDS011;9097;47.028;15.444;2022-12-07T00:34:21;11.50;;;4.60;;
17943;SDS011;9097;47.028;15.444;2022-12-07T00:37:24;5.67;;;3.23;;
17943;SDS011;9097;47.028;15.444;2022-12-07T00:40:27;13.70;;;6.10;;
17943;SDS011;9097;47.028;15.444;2022-12-07T00:43:29;7.23;;;3.80;;
17943;SDS011;9097;47.028;15.444;2022-12-07T00:46:32;8.30;;;4.23;;
17943;SDS011;9097;47.028;15.444;2022-12-07T00:49:36;7.90;;;3.80;;
17943;SDS011;9097;47.028;15.444;2022-12-07T00:52:38;6.33;;;4.20;;
17943;SDS011;9097;47.028;15.444;2022-12-07T00:55:40;4.03;;;2.17;;
17943;SDS011;9097;47.028;15.444;2022-12-07T00:58:43;3.10;;;1.97;;
17943;SDS011;9097;47.028;15.444;2022-12-07T01:01:45;9.70;;;2.73;;
17943;SDS011;9097;47.028;15.444;2022-12-07T01:04:49;5.50;;;3.27;;
17943;SDS011;9097;47.028;15.444;2022-12-07T01:07:52;4.53;;;3.03;;
17943;SDS011;9097;47.028;15.444;2022-12-07T01:10:57;9.83;;;3.87;;
17943;SDS011;9097;47.028;15.444;2022-12-07T01:14:02;7.50;;;2.70;;
17943;SDS011;9097;47.028;15.444;2022-12-07T01:17:04;4.33;;;2.27;;
17943;SDS011;9097;47.028;15.444;2022-12-07T01:20:09;3.80;;;2.80;;
17943;SDS011;9097;47.028;15.444;2022-12-07T01:23:12;6.33;;;1.97;;
17943;SDS011;9097;47.028;15.444;2022-12-07T01:26:15;4.00;;;2.03;;
17943;SDS011;9097;47.028;15.444;2022-12-07T01:29:19;10.40;;;2.20;;
17943;SDS011;9097;47.028;15.444;2022-12-07T01:32:22;5.77;;;2.23;;
17943;SDS011;9097;47.028;15.444;2022-12-07T01:35:26;4.63;;;2.10;;
17943;SDS011;9097;47.028;15.444;2022-12-07T01:38:29;5.20;;;2.10;;
17943;SDS011;9097;47.028;15.444;2022-12-07T01:41:33;3.20;;;1.23;;
17943;SDS011;9097;47.028;15.444;2022-12-07T01:48:14;3.27;;;1.63;;
17943;SDS011;9097;47.028;15.444;2022-12-07T01:51:21;6.07;;;2.73;;
17943;SDS011;9097;47.028;15.444;2022-12-07T01:54:23;4.67;;;2.00;;
17943;SDS011;9097;47.028;15.444;2022-12-07T01:57:27;3.07;;;1.70;;
17943;SDS011;9097;47.028;15.444;2022-12-07T02:00:30;6.60;;;1.93;;
17943;SDS011;9097;47.028;15.444;2022-12-07T02:03:34;10.13;;;2.93;;
17943;SDS011;9097;47.028;15.444;2022-12-07T02:06:40;2.60;;;1.60;;
17943;SDS011;9097;47.028;15.444;2022-12-07T02:09:44;6.37;;;2.80;;
17943;SDS011;9097;47.028;15.444;2022-12-07T02:12:49;6.03;;;2.10;;
17943;SDS011;9097;47.028;15.444;2022-12-07T02:16:04;5.43;;;2.27;;
17943;SDS011;9097;47.028;15.444;2022-12-07T02:30:31;5.30;;;2.97;;
17943;SDS011;9097;47.028;15.444;2022-12-07T02:33:37;6.80;;;3.07;;
17943;SDS011;9097;47.028;15.444;2022-12-07T02:36:45;6.60;;;2.33;;
17943;SDS011;9097;47.028;15.444;2022-12-07T02:39:54;4.30;;;2.00;;
17943;SDS011;9097;47.028;15.444;2022-12-07T02:43:02;9.67;;;3.07;;
17943;SDS011;9097;47.028;15.444;2022-12-07T02:46:09;4.50;;;2.63;;
17943;SDS011;9097;47.028;15.444;2022-12-07T02:49:15;5.83;;;2.30;;
17943;SDS011;9097;47.028;15.444;2022-12-07T02:52:18;10.70;;;3.33;;
17943;SDS011;9097;47.028;15.444;2022-12-07T02:55:24;8.53;;;3.10;;
17943;SDS011;9097;47.028;15.444;2022-12-07T02:58:32;7.90;;;2.97;;
17943;SDS011;9097;47.028;15.444;2022-12-07T03:01:50;8.07;;;3.87;;
17943;SDS011;9097;47.028;15.444;2022-12-07T03:05:00;12.77;;;4.30;;
17943;SDS011;9097;47.028;15.444;2022-12-07T03:08:11;5.70;;;3.30;;
17943;SDS011;9097;47.028;15.444;2022-12-07T03:11:18;10.87;;;3.77;;
17943;SDS011;9097;47.028;15.444;2022-12-07T03:14:27;6.67;;;2.73;;
17943;SDS011;9097;47.028;15.444;2022-12-07T03:17:35;7.17;;;2.20;;
17943;SDS011;9097;47.028;15.444;2022-12-07T03:20:42;7.50;;;2.93;;
17943;SDS011;9097;47.028;15.444;2022-12-07T03:23:48;8.83;;;2.40;;
17943;SDS011;9097;47.028;15.444;2022-12-07T03:26:55;5.67;;;3.00;;
17943;SDS011;9097;47.028;15.444;2022-12-07T03:30:03;3.50;;;3.03;;
17943;SDS011;9097;47.028;15.444;2022-12-07T03:33:10;4.20;;;2.17;;
17943;SDS011;9097;47.028;15.444;2022-12-07T03:36:17;5.93;;;2.50;;
17943;SDS011;9097;47.028;15.444;2022-12-07T03:39:24;8.37;;;3.60;;
17943;SDS011;9097;47.028;15.444;2022-12-07T03:42:31;5.67;;;1.83;;
17943;SDS011;9097;47.028;15.444;2022-12-07T03:45:37;7.13;;;3.43;;
17943;SDS011;9097;47.028;15.444;2022-12-07T03:48:44;6.07;;;3.10;;
17943;SDS011;9097;47.028;15.444;2022-12-07T03:51:56;2.90;;;2.00;;
17943;SDS011;9097;47.028;15.444;2022-12-07T03:55:05;5.73;;;2.23;;
17943;SDS011;9097;47.028;15.444;2022-12-07T03:58:12;10.00;;;3.40;;
17943;SDS011;9097;47.028;15.444;2022-12-07T04:01:19;4.03;;;2.30;;
17943;SDS011;9097;47.028;15.444;2022-12-07T04:04:23;1.70;;;1.20;;
17943;SDS011;9097;47.028;15.444;2022-12-07T04:07:26;2.60;;;2.37;;
17943;SDS011;9097;47.028;15.444;2022-12-07T04:10:29;3.23;;;2.97;;
17943;SDS011;9097;47.028;15.444;2022-12-07T04:13:31;7.40;;;3.90;;
17943;SDS011;9097;47.028;15.444;2022-12-07T04:16:54;6.30;;;2.70;;
17943;SDS011;9097;47.028;15.444;2022-12-07T04:19:59;3.00;;;1.50;;
17943;SDS011;9097;47.028;15.444;2022-12-07T04:23:01;6.97;;;2.63;;
17943;SDS011;9097;47.028;15.444;2022-12-07T04:26:04;6.20;;;2.07;;
17943;SDS011;9097;47.028;15.444;2022-12-07T04:29:06;2.93;;;1.40;;
17943;SDS011;9097;47.028;15.444;2022-12-07T04:32:09;1.50;;;1.10;;
17943;SDS011;9097;47.028;15.444;2022-12-07T04:35:12;5.60;;;1.17;;
17943;SDS011;9097;47.028;15.444;2022-12-07T04:38:15;3.40;;;1.80;;
17943;SDS011;9097;47.028;15.444;2022-12-07T04:41:17;2.07;;;1.20;;
17943;SDS011;9097;47.028;15.444;2022-12-07T04:44:27;5.10;;;2.57;;
17943;SDS011;9097;47.028;15.444;2022-12-07T04:47:30;2.90;;;2.03;;
17943;SDS011;9097;47.028;15.444;2022-12-07T04:50:34;4.80;;;1.87;;
17943;SDS011;9097;47.028;15.444;2022-12-07T04:53:38;1.83;;;1.47;;
17943;SDS011;9097;47.028;15.444;2022-12-07T04:56:41;3.30;;;1.67;;
17943;SDS011;9097;47.028;15.444;2022-12-07T04:59:44;3.00;;;1.53;;
17943;SDS011;9097;47.028;15.444;2022-12-07T05:02:46;5.07;;;2.23;;
17943;SDS011;9097;47.028;15.444;2022-12-07T05:05:50;5.23;;;2.20;;
17943;SDS011;9097;47.028;15.444;2022-12-07T05:08:52;3.47;;;2.27;;
17943;SDS011;9097;47.028;15.444;2022-12-07T05:11:54;2.43;;;1.83;;
17943;SDS011;9097;47.028;15.444;2022-12-07T05:14:57;1.87;;;1.00;;
17943;SDS011;9097;47.028;15.444;2022-12-07T05:17:59;3.33;;;2.43;;
17943;SDS011;9097;47.028;15.444;2022-12-07T05:21:04;2.37;;;1.77;;
17943;SDS011;9097;47.028;15.444;2022-12-07T05:24:07;4.57;;;2.93;;
17943;SDS011;9097;47.028;15.444;2022-12-07T05:27:11;5.40;;;3.20;;
17943;SDS011;9097;47.028;15.444;2022-12-07T05:30:13;4.07;;;1.90;;
17943;SDS011;9097;47.028;15.444;2022-12-07T05:33:16;6.83;;;2.47;;
17943;SDS011;9097;47.028;15.444;2022-12-07T05:36:20;7.90;;;2.27;;
17943;SDS011;9097;47.028;15.444;2022-12-07T05:39:22;5.17;;;2.43;;
17943;SDS011;9097;47.028;15.444;2022-12-07T05:42:24;6.07;;;2.70;;
17943;SDS011;9097;47.028;15.444;2022-12-07T05:45:26;11.87;;;3.57;;
17943;SDS011;9097;47.028;15.444;2022-12-07T05:48:30;9.60;;;2.27;;
17943;SDS011;9097;47.028;15.444;2022-12-07T05:51:34;3.77;;;2.10;;
17943;SDS011;9097;47.028;15.444;2022-12-07T05:54:37;4.87;;;2.00;;
17943;SDS011;9097;47.028;15.444;2022-12-07T05:57:40;7.07;;;3.07;;
17943;SDS011;9097;47.028;15.444;2022-12-07T06:01:03;3.47;;;1.67;;
17943;SDS011;9097;47.028;15.444;2022-12-07T06:04:05;5.20;;;2.13;;
17943;SDS011;9097;47.028;15.444;2022-12-07T06:07:09;5.40;;;2.70;;
17943;SDS011;9097;47.028;15.444;2022-12-07T06:10:14;5.87;;;2.10;;
17943;SDS011;9097;47.028;15.444;2022-12-07T06:13:17;6.07;;;3.17;;
17943;SDS011;9097;47.028;15.444;2022-12-07T06:16:18;3.30;;;2.53;;
17943;SDS011;9097;47.028;15.444;2022-12-07T06:19:20;7.33;;;3.87;;
17943;SDS011;9097;47.028;15.444;2022-12-07T06:22:25;7.30;;;2.87;;
17943;SDS011;9097;47.028;15.444;2022-12-07T06:25:28;6.13;;;3.33;;
17943;SDS011;9097;47.028;15.444;2022-12-07T06:28:38;6.63;;;2.00;;
17943;SDS011;9097;47.028;15.444;2022-12-07T06:31:41;2.53;;;2.13;;
17943;SDS011;9097;47.028;15.444;2022-12-07T06:34:43;4.63;;;2.20;;
17943;SDS011;9097;47.028;15.444;2022-12-07T06:37:48;8.90;;;2.23;;
17943;SDS011;9097;47.028;15.444;2022-12-07T06:40:50;10.90;;;3.57;;
17943;SDS011;9097;47.028;15.444;2022-12-07T06:43:53;4.97;;;3.70;;
17943;SDS011;9097;47.028;15.444;2022-12-07T06:46:55;6.47;;;2.93;;
17943;SDS011;9097;47.028;15.444;2022-12-07T06:49:57;6.80;;;2.30;;
17943;SDS011;9097;47.028;15.444;2022-12-07T06:53:01;4.67;;;3.13;;
17943;SDS011;9097;47.028;15.444;2022-12-07T06:56:04;4.17;;;2.00;;
17943;SDS011;9097;47.028;15.444;2022-12-07T06:59:07;3.57;;;2.03;;
17943;SDS011;9097;47.028;15.444;2022-12-07T07:02:09;2.60;;;2.40;;
17943;SDS011;9097;47.028;15.444;2022-12-07T07:05:11;5.07;;;3.13;;
17943;SDS011;9097;47.028;15.444;2022-12-07T07:08:16;7.40;;;3.30;;
17943;SDS011;9097;47.028;15.444;2022-12-07T07:11:18;11.70;;;1.80;;
17943;SDS011;9097;47.028;15.444;2022-12-07T07:14:22;5.07;;;3.03;;
17943;SDS011;9097;47.028;15.444;2022-12-07T07:17:24;6.67;;;2.00;;
17943;SDS011;9097;47.028;15.444;2022-12-07T07:20:26;3.37;;;2.50;;
17943;SDS011;9097;47.028;15.444;2022-12-07T07:23:30;5.47;;;3.33;;
17943;SDS011;9097;47.028;15.444;2022-12-07T07:26:33;11.37;;;2.23;;
17943;SDS011;9097;47.028;15.444;2022-12-07T07:29:37;3.50;;;2.13;;
17943;SDS011;9097;47.028;15.444;2022-12-07T07:32:40;4.13;;;2.07;;
17943;SDS011;9097;47.028;15.444;2022-12-07T07:35:43;9.93;;;1.70;;
17943;SDS011;9097;47.028;15.444;2022-12-07T07:38:46;3.27;;;2.57;;
17943;SDS011;9097;47.028;15.444;2022-12-07T07:41:49;3.20;;;1.70;;
17943;SDS011;9097;47.028;15.444;2022-12-07T07:44:51;6.27;;;2.43;;
17943;SDS011;9097;47.028;15.444;2022-12-07T07:47:53;6.83;;;3.03;;
17943;SDS011;9097;47.028;15.444;2022-12-07T07:50:56;5.13;;;2.80;;
17943;SDS011;9097;47.028;15.444;2022-12-07T07:54:00;3.73;;;3.27;;
17943;SDS011;9097;47.028;15.444;2022-12-07T07:57:02;4.93;;;2.53;;
17943;SDS011;9097;47.028;15.444;2022-12-07T08:00:05;5.40;;;3.23;;
17943;SDS011;9097;47.028;15.444;2022-12-07T08:03:09;5.37;;;2.13;;
17943;SDS011;9097;47.028;15.444;2022-12-07T08:06:12;6.73;;;2.73;;
17943;SDS011;9097;47.028;15.444;2022-12-07T08:09:15;5.63;;;2.87;;
17943;SDS011;9097;47.028;15.444;2022-12-07T08:12:18;8.93;;;3.20;;
17943;SDS011;9097;47.028;15.444;2022-12-07T08:15:20;3.87;;;2.80;;
17943;SDS011;9097;47.028;15.444;2022-12-07T08:18:22;12.97;;;3.37;;
17943;SDS011;9097;47.028;15.444;2022-12-07T08:21:25;8.77;;;3.27;;
17943;SDS011;9097;47.028;15.444;2022-12-07T08:24:29;3.40;;;2.97;;
17943;SDS011;9097;47.028;15.444;2022-12-07T08:27:31;8.60;;;4.77;;
17943;SDS011;9097;47.028;15.444;2022-12-07T08:30:33;10.23;;;3.20;;
17943;SDS011;9097;47.028;15.444;2022-12-07T08:33:36;14.77;;;4.17;;
17943;SDS011;9097;47.028;15.444;2022-12-07T08:36:38;7.37;;;3.67;;
17943;SDS011;9097;47.028;15.444;2022-12-07T08:39:42;6.23;;;2.83;;
17943;SDS011;9097;47.028;15.444;2022-12-07T08:42:48;8.47;;;3.77;;
17943;SDS011;9097;47.028;15.444;2022-12-07T08:45:51;9.77;;;3.73;;
17943;SDS011;9097;47.028;15.444;2022-12-07T08:49:02;5.53;;;3.13;;
17943;SDS011;9097;47.028;15.444;2022-12-07T08:52:07;3.97;;;2.87;;
17943;SDS011;9097;47.028;15.444;2022-12-07T08:55:11;10.17;;;3.27;;
17943;SDS011;9097;47.028;15.444;2022-12-07T08:58:14;6.50;;;3.23;;
17943;SDS011;9097;47.028;15.444;2022-12-07T09:01:17;4.60;;;3.00;;
17943;SDS011;9097;47.028;15.444;2022-12-07T09:04:19;10.33;;;4.43;;
17943;SDS011;9097;47.028;15.444;2022-12-07T09:07:22;11.03;;;4.60;;
17943;SDS011;9097;47.028;15.444;2022-12-07T09:10:26;14.27;;;2.97;;
17943;SDS011;9097;47.028;15.444;2022-12-07T09:13:29;6.87;;;3.30;;
17943;SDS011;9097;47.028;15.444;2022-12-07T09:16:31;6.77;;;3.10;;
17943;SDS011;9097;47.028;15.444;2022-12-07T09:19:34;12.50;;;4.40;;
17943;SDS011;9097;47.028;15.444;2022-12-07T09:22:37;7.07;;;4.27;;
17943;SDS011;9097;47.028;15.444;2022-12-07T09:25:41;10.43;;;4.80;;
17943;SDS011;9097;47.028;15.444;2022-12-07T09:28:45;11.47;;;6.27;;
17943;SDS011;9097;47.028;15.444;2022-12-07T09:31:48;9.33;;;4.67;;
17943;SDS011;9097;47.028;15.444;2022-12-07T09:34:50;10.93;;;4.83;;
17943;SDS011;9097;47.028;15.444;2022-12-07T09:37:52;9.37;;;4.20;;
17943;SDS011;9097;47.028;15.444;2022-12-07T09:40:56;8.63;;;3.80;;
17943;SDS011;9097;47.028;15.444;2022-12-07T09:44:02;8.87;;;4.30;;
17943;SDS011;9097;47.028;15.444;2022-12-07T09:47:07;6.53;;;4.13;;
17943;SDS011;9097;47.028;15.444;2022-12-07T09:50:13;11.77;;;5.70;;
17943;SDS011;9097;47.028;15.444;2022-12-07T09:53:18;13.37;;;7.27;;
17943;SDS011;9097;47.028;15.444;2022-12-07T09:56:29;10.23;;;4.90;;
17943;SDS011;9097;47.028;15.444;2022-12-07T09:59:33;7.47;;;4.07;;
17943;SDS011;9097;47.028;15.444;2022-12-07T10:02:36;8.87;;;4.67;;
17943;SDS011;9097;47.028;15.444;2022-12-07T10:05:43;16.47;;;4.37;;
17943;SDS011;9097;47.028;15.444;2022-12-07T10:08:48;8.37;;;3.30;;
17943;SDS011;9097;47.028;15.444;2022-12-07T10:11:59;14.10;;;6.53;;
17943;SDS011;9097;47.028;15.444;2022-12-07T10:15:04;13.20;;;5.53;;
17943;SDS011;9097;47.028;15.444;2022-12-07T10:18:14;7.80;;;4.10;;
17943;SDS011;9097;47.028;15.444;2022-12-07T10:21:21;10.63;;;5.07;;
17943;SDS011;9097;47.028;15.444;2022-12-07T10:24:24;15.33;;;6.70;;
17943;SDS011;9097;47.028;15.444;2022-12-07T10:27:29;15.37;;;4.40;;
17943;SDS011;9097;47.028;15.444;2022-12-07T10:30:33;8.03;;;4.77;;
17943;SDS011;9097;47.028;15.444;2022-12-07T10:33:51;6.47;;;4.10;;
17943;SDS011;9097;47.028;15.444;2022-12-07T10:37:07;9.87;;;4.27;;
17943;SDS011;9097;47.028;15.444;2022-12-07T10:40:27;16.70;;;5.00;;
17943;SDS011;9097;47.028;15.444;2022-12-07T10:43:33;7.53;;;3.23;;
17943;SDS011;9097;47.028;15.444;2022-12-07T10:50:12;11.43;;;4.70;;
17943;SDS011;9097;47.028;15.444;2022-12-07T10:53:28;11.90;;;4.37;;
17943;SDS011;9097;47.028;15.444;2022-12-07T11:00:37;10.90;;;5.33;;
17943;SDS011;9097;47.028;15.444;2022-12-07T11:03:46;8.80;;;4.00;;
17943;SDS011;9097;47.028;15.444;2022-12-07T11:06:58;13.47;;;5.93;;
17943;SDS011;9097;47.028;15.444;2022-12-07T11:10:09;14.57;;;6.43;;
17943;SDS011;9097;47.028;15.444;2022-12-07T11:13:20;10.70;;;5.07;;
17943;SDS011;9097;47.028;15.444;2022-12-07T11:16:34;18.50;;;6.37;;
17943;SDS011;9097;47.028;15.444;2022-12-07T11:19:48;12.07;;;5.10;;
17943;SDS011;9097;47.028;15.444;2022-12-07T11:22:58;15.27;;;4.73;;
17943;SDS011;9097;47.028;15.444;2022-12-07T11:26:06;12.53;;;5.70;;
17943;SDS011;9097;47.028;15.444;2022-12-07T11:29:30;14.97;;;5.40;;
17943;SDS011;9097;47.028;15.444;2022-12-07T11:32:55;12.37;;;6.00;;
17943;SDS011;9097;47.028;15.444;2022-12-07T11:36:16;15.73;;;7.33;;
17943;SDS011;9097;47.028;15.444;2022-12-07T11:39:30;12.40;;;5.50;;
17943;SDS011;9097;47.028;15.444;2022-12-07T11:42:38;12.27;;;5.87;;
17943;SDS011;9097;47.028;15.444;2022-12-07T11:45:44;12.90;;;6.63;;
17943;SDS011;9097;47.028;15.444;2022-12-07T11:48:54;17.37;;;5.83;;
17943;SDS011;9097;47.028;15.444;2022-12-07T11:52:04;11.37;;;4.67;;
17943;SDS011;9097;47.028;15.444;2022-12-07T11:55:18;9.97;;;5.23;;
17943;SDS011;9097;47.028;15.444;2022-12-07T11:58:33;10.83;;;5.23;;
17943;SDS011;9097;47.028;15.444;2022-12-07T12:01:44;13.13;;;5.70;;
17943;SDS011;9097;47.028;15.444;2022-12-07T12:04:56;11.60;;;4.40;;
17943;SDS011;9097;47.028;15.444;2022-12-07T12:08:09;9.50;;;4.83;;
17943;SDS011;9097;47.028;15.444;2022-12-07T12:11:18;12.33;;;4.80;;
17943;SDS011;9097;47.028;15.444;2022-12-07T12:14:39;7.60;;;4.23;;
17943;SDS011;9097;47.028;15.444;2022-12-07T12:17:59;8.93;;;4.30;;
17943;SDS011;9097;47.028;15.444;2022-12-07T12:21:17;8.43;;;3.93;;
17943;SDS011;9097;47.028;15.444;2022-12-07T12:24:22;9.90;;;4.77;;
17943;SDS011;9097;47.028;15.444;2022-12-07T12:27:29;8.93;;;3.40;;
17943;SDS011;9097;47.028;15.444;2022-12-07T12:30:34;14.50;;;4.47;;
17943;SDS011;9097;47.028;15.444;2022-12-07T12:33:38;9.10;;;5.10;;
17943;SDS011;9097;47.028;15.444;2022-12-07T12:36:46;9.17;;;4.53;;
17943;SDS011;9097;47.028;15.444;2022-12-07T12:46:52;5.77;;;3.73;;
17943;SDS011;9097;47.028;15.444;2022-12-07T12:50:15;9.33;;;4.07;;
17943;SDS011;9097;47.028;15.444;2022-12-07T12:53:22;9.57;;;4.47;;
17943;SDS011;9097;47.028;15.444;2022-12-07T12:56:29;8.30;;;3.77;;
17943;SDS011;9097;47.028;15.444;2022-12-07T12:59:41;13.37;;;5.57;;
17943;SDS011;9097;47.028;15.444;2022-12-07T13:02:58;10.80;;;5.13;;
17943;SDS011;9097;47.028;15.444;2022-12-07T13:06:17;11.63;;;4.63;;
17943;SDS011;9097;47.028;15.444;2022-12-07T13:09:23;6.83;;;4.43;;
17943;SDS011;9097;47.028;15.444;2022-12-07T13:12:28;9.00;;;3.90;;
17943;SDS011;9097;47.028;15.444;2022-12-07T13:15:31;8.43;;;4.77;;
17943;SDS011;9097;47.028;15.444;2022-12-07T13:18:35;13.60;;;4.70;;
17943;SDS011;9097;47.028;15.444;2022-12-07T13:21:42;15.47;;;4.90;;
17943;SDS011;9097;47.028;15.444;2022-12-07T13:24:47;7.77;;;4.37;;
17943;SDS011;9097;47.028;15.444;2022-12-07T13:27:56;15.20;;;4.73;;
17943;SDS011;9097;47.028;15.444;2022-12-07T13:31:08;8.77;;;3.63;;
17943;SDS011;9097;47.028;15.444;2022-12-07T13:34:30;10.70;;;3.67;;
17943;SDS011;9097;47.028;15.444;2022-12-07T13:37:34;8.20;;;4.43;;
17943;SDS011;9097;47.028;15.444;2022-12-07T13:40:38;10.47;;;4.77;;
17943;SDS011;9097;47.028;15.444;2022-12-07T13:43:46;8.67;;;4.27;;
17943;SDS011;9097;47.028;15.444;2022-12-07T13:46:54;8.47;;;3.73;;
17943;SDS011;9097;47.028;15.444;2022-12-07T13:50:00;9.33;;;3.77;;
17943;SDS011;9097;47.028;15.444;2022-12-07T13:53:07;14.87;;;4.93;;
17943;SDS011;9097;47.028;15.444;2022-12-07T13:56:15;12.10;;;4.97;;
17943;SDS011;9097;47.028;15.444;2022-12-07T13:59:19;8.00;;;4.03;;
17943;SDS011;9097;47.028;15.444;2022-12-07T14:02:34;9.70;;;4.40;;
17943;SDS011;9097;47.028;15.444;2022-12-07T14:05:36;14.30;;;4.87;;
17943;SDS011;9097;47.028;15.444;2022-12-07T14:08:40;9.37;;;5.30;;
17943;SDS011;9097;47.028;15.444;2022-12-07T14:11:44;6.83;;;3.40;;
17943;SDS011;9097;47.028;15.444;2022-12-07T14:14:47;15.43;;;5.63;;
17943;SDS011;9097;47.028;15.444;2022-12-07T14:17:50;7.67;;;4.33;;
17943;SDS011;9097;47.028;15.444;2022-12-07T14:21:02;8.97;;;4.37;;
17943;SDS011;9097;47.028;15.444;2022-12-07T14:24:10;8.97;;;4.30;;
17943;SDS011;9097;47.028;15.444;2022-12-07T14:27:20;8.70;;;4.47;;
17943;SDS011;9097;47.028;15.444;2022-12-07T14:30:26;7.90;;;4.07;;
17943;SDS011;9097;47.028;15.444;2022-12-07T14:33:29;11.00;;;4.87;;
17943;SDS011;9097;47.028;15.444;2022-12-07T14:36:32;5.77;;;3.90;;
17943;SDS011;9097;47.028;15.444;2022-12-07T14:39:34;10.30;;;5.67;;
17943;SDS011;9097;47.028;15.444;2022-12-07T14:42:38;5.53;;;3.50;;
17943;SDS011;9097;47.028;15.444;2022-12-07T14:45:42;10.43;;;3.33;;
17943;SDS011;9097;47.028;15.444;2022-12-07T14:48:44;11.73;;;5.27;;
17943;SDS011;9097;47.028;15.444;2022-12-07T14:51:47;6.07;;;3.53;;
17943;SDS011;9097;47.028;15.444;2022-12-07T14:54:59;11.23;;;3.60;;
17943;SDS011;9097;47.028;15.444;2022-12-07T14:58:06;7.77;;;4.40;;
17943;SDS011;9097;47.028;15.444;2022-12-07T15:01:13;8.53;;;3.30;;
17943;SDS011;9097;47.028;15.444;2022-12-07T15:04:15;5.23;;;3.47;;
17943;SDS011;9097;47.028;15.444;2022-12-07T15:07:20;8.97;;;3.93;;
17943;SDS011;9097;47.028;15.444;2022-12-07T15:10:25;7.77;;;4.17;;
17943;SDS011;9097;47.028;15.444;2022-12-07T15:13:31;11.80;;;4.27;;
17943;SDS011;9097;47.028;15.444;2022-12-07T15:16:51;9.27;;;4.60;;
17943;SDS011;9097;47.028;15.444;2022-12-07T15:19:53;13.73;;;6.90;;
17943;SDS011;9097;47.028;15.444;2022-12-07T15:22:56;11.87;;;5.50;;
17943;SDS011;9097;47.028;15.444;2022-12-07T15:25:58;19.63;;;6.43;;
17943;SDS011;9097;47.028;15.444;2022-12-07T15:29:02;11.27;;;5.40;;
17943;SDS011;9097;47.028;15.444;2022-12-07T15:32:05;9.03;;;4.20;;
17943;SDS011;9097;47.028;15.444;2022-12-07T15:35:08;8.03;;;4.70;;
17943;SDS011;9097;47.028;15.444;2022-12-07T15:38:10;8.13;;;3.60;;
17943;SDS011;9097;47.028;15.444;2022-12-07T15:41:13;10.80;;;3.50;;
17943;SDS011;9097;47.028;15.444;2022-12-07T15:44:17;6.13;;;4.17;;
17943;SDS011;9097;47.028;15.444;2022-12-07T15:47:37;6.73;;;4.63;;
17943;SDS011;9097;47.028;15.444;2022-12-07T15:50:42;8.73;;;3.43;;
17943;SDS011;9097;47.028;15.444;2022-12-07T15:53:47;10.10;;;4.47;;
17943;SDS011;9097;47.028;15.444;2022-12-07T15:56:51;7.60;;;4.07;;
17943;SDS011;9097;47.028;15.444;2022-12-07T15:59:56;7.40;;;4.27;;
17943;SDS011;9097;47.028;15.444;2022-12-07T16:02:59;10.57;;;4.63;;
17943;SDS011;9097;47.028;15.444;2022-12-07T16:06:01;10.67;;;5.87;;
17943;SDS011;9097;47.028;15.444;2022-12-07T16:09:04;12.77;;;6.20;;
17943;SDS011;9097;47.028;15.444;2022-12-07T16:12:07;18.13;;;5.90;;
17943;SDS011;9097;47.028;15.444;2022-12-07T16:15:11;9.67;;;4.30;;
17943;SDS011;9097;47.028;15.444;2022-12-07T16:18:14;14.67;;;5.10;;
17943;SDS011;9097;47.028;15.444;2022-12-07T16:21:17;18.07;;;4.13;;
17943;SDS011;9097;47.028;15.444;2022-12-07T16:24:21;8.10;;;4.70;;
17943;SDS011;9097;47.028;15.444;2022-12-07T16:27:23;13.57;;;5.70;;
17943;SDS011;9097;47.028;15.444;2022-12-07T16:30:27;9.87;;;5.27;;
17943;SDS011;9097;47.028;15.444;2022-12-07T16:33:30;13.53;;;5.97;;
17943;SDS011;9097;47.028;15.444;2022-12-07T16:36:35;6.77;;;4.50;;
17943;SDS011;9097;47.028;15.444;2022-12-07T16:39:37;14.47;;;5.80;;
17943;SDS011;9097;47.028;15.444;2022-12-07T16:42:39;9.90;;;4.77;;
17943;SDS011;9097;47.028;15.444;2022-12-07T16:45:43;10.93;;;4.10;;
17943;SDS011;9097;47.028;15.444;2022-12-07T16:48:47;9.33;;;4.03;;
17943;SDS011;9097;47.028;15.444;2022-12-07T16:51:49;10.13;;;4.47;;
17943;SDS011;9097;47.028;15.444;2022-12-07T16:54:52;4.00;;;3.33;;
17943;SDS011;9097;47.028;15.444;2022-12-07T16:57:54;9.97;;;4.60;;
17943;SDS011;9097;47.028;15.444;2022-12-07T17:01:01;6.33;;;4.10;;
17943;SDS011;9097;47.028;15.444;2022-12-07T17:04:11;8.77;;;3.90;;
17943;SDS011;9097;47.028;15.444;2022-12-07T17:07:13;10.03;;;3.90;;
17943;SDS011;9097;47.028;15.444;2022-12-07T17:10:15;10.97;;;4.60;;
17943;SDS011;9097;47.028;15.444;2022-12-07T17:13:18;7.77;;;4.10;;
17943;SDS011;9097;47.028;15.444;2022-12-07T17:16:41;10.37;;;5.53;;
17943;SDS011;9097;47.028;15.444;2022-12-07T17:19:46;8.13;;;4.47;;
17943;SDS011;9097;47.028;15.444;2022-12-07T17:22:49;9.97;;;4.60;;
17943;SDS011;9097;47.028;15.444;2022-12-07T17:25:52;6.07;;;3.37;;
17943;SDS011;9097;47.028;15.444;2022-12-07T17:28:55;9.50;;;5.07;;
17943;SDS011;9097;47.028;15.444;2022-12-07T17:31:59;8.57;;;4.10;;
17943;SDS011;9097;47.028;15.444;2022-12-07T17:35:01;9.53;;;4.37;;
17943;SDS011;9097;47.028;15.444;2022-12-07T17:38:04;11.17;;;4.67;;
17943;SDS011;9097;47.028;15.444;2022-12-07T17:41:12;11.47;;;4.80;;
17943;SDS011;9097;47.028;15.444;2022-12-07T17:44:41;8.60;;;5.17;;
17943;SDS011;9097;47.028;15.444;2022-12-07T17:47:45;5.73;;;3.83;;
17943;SDS011;9097;47.028;15.444;2022-12-07T17:50:49;7.23;;;3.43;;
17943;SDS011;9097;47.028;15.444;2022-12-07T17:54:11;8.13;;;3.37;;
17943;SDS011;9097;47.028;15.444;2022-12-07T17:57:14;6.67;;;3.90;;
17943;SDS011;9097;47.028;15.444;2022-12-07T18:00:19;12.23;;;4.30;;
17943;SDS011;9097;47.028;15.444;2022-12-07T18:03:23;6.50;;;4.03;;
17943;SDS011;9097;47.028;15.444;2022-12-07T18:06:25;9.50;;;3.57;;
17943;SDS011;9097;47.028;15.444;2022-12-07T18:09:28;11.67;;;4.80;;
17943;SDS011;9097;47.028;15.444;2022-12-07T18:12:31;8.43;;;3.47;;
17943;SDS011;9097;47.028;15.444;2022-12-07T18:15:33;6.33;;;3.87;;
17943;SDS011;9097;47.028;15.444;2022-12-07T18:18:37;11.30;;;3.77;;
17943;SDS011;9097;47.028;15.444;2022-12-07T18:21:40;8.53;;;3.67;;
17943;SDS011;9097;47.028;15.444;2022-12-07T18:24:43;9.13;;;3.53;;
17943;SDS011;9097;47.028;15.444;2022-12-07T18:27:45;8.80;;;3.63;;
17943;SDS011;9097;47.028;15.444;2022-12-07T18:30:49;9.03;;;4.30;;
17943;SDS011;9097;47.028;15.444;2022-12-07T18:33:58;6.23;;;2.90;;
17943;SDS011;9097;47.028;15.444;2022-12-07T18:37:04;10.00;;;4.33;;
17943;SDS011;9097;47.028;15.444;2022-12-07T18:40:07;8.27;;;4.87;;
17943;SDS011;9097;47.028;15.444;2022-12-07T18:43:10;10.13;;;3.20;;
17943;SDS011;9097;47.028;15.444;2022-12-07T18:46:14;18.43;;;4.90;;
17943;SDS011;9097;47.028;15.444;2022-12-07T18:49:19;9.47;;;4.60;;
17943;SDS011;9097;47.028;15.444;2022-12-07T18:52:21;9.07;;;4.70;;
17943;SDS011;9097;47.028;15.444;2022-12-07T18:55:28;8.53;;;4.17;;
17943;SDS011;9097;47.028;15.444;2022-12-07T18:58:31;6.10;;;4.23;;
17943;SDS011;9097;47.028;15.444;2022-12-07T19:01:34;8.93;;;4.83;;